Time;durP1;ratioP1;P1;durP2;ratioP2;P2;SDS_P1;SDS_P2;PMS_P1;PMS_P2;Temp;Humidity;BMP_temperature;BMP_pressure;BME280_temperature;BME280_humidity;BME280_pressure;Samples;Min_cycle;Max_cycle;Signal;HPM_P1;HPM_P2
2021/01/09 00:01:41;;;;;;;1999.90;999.90;;;;;;;1.16;100.00;100607.60;1779712;79;21103;-66
2021/01/09 00:04:09;;;;;;;1999.90;999.90;;;;;;;1.16;100.00;100604.88;1773406;79;21241;-64
2021/01/09 00:06:39;;;;;;;1999.90;999.90;;;;;;;1.17;100.00;100616.07;1795224;79;21122;-66
2021/01/09 00:09:07;;;;;;;1999.90;999.90;;;;;;;1.19;100.00;100610.37;1784409;79;21123;-65
2021/01/09 00:11:35;;;;;;;1999.90;999.90;;;;;;;1.19;100.00;100609.84;1791692;79;21451;-67
2021/01/09 00:14:03;;;;;;;1999.90;999.90;;;;;;;1.20;100.00;100606.03;1776904;77;21218;-68
2021/01/09 00:16:31;;;;;;;1999.90;999.90;;;;;;;1.23;100.00;100604.72;1779301;79;20984;-65
2021/01/09 00:18:59;;;;;;;1999.90;999.90;;;;;;;1.21;100.00;100605.50;1775339;79;21102;-67
2021/01/09 00:21:35;;;;;;;1999.90;999.90;;;;;;;1.21;100.00;100595.95;1778479;79;21087;-71
2021/01/09 00:24:06;;;;;;;1999.90;999.90;;;;;;;1.19;100.00;100573.57;1775888;79;21559;-64
2021/01/09 00:26:35;;;;;;;1999.90;999.90;;;;;;;1.16;100.00;100559.07;1773921;79;20976;-65
2021/01/09 00:29:04;;;;;;;1999.90;999.90;;;;;;;1.15;100.00;100536.97;1783678;79;21103;-65
2021/01/09 00:31:33;;;;;;;1999.90;999.90;;;;;;;1.15;100.00;100523.34;1772147;79;21076;-64
2021/01/09 00:34:01;;;;;;;1999.90;999.90;;;;;;;1.16;100.00;100523.63;1775149;79;20981;-65
2021/01/09 00:36:29;;;;;;;1999.90;999.90;;;;;;;1.18;100.00;100526.40;1772738;79;21355;-65
2021/01/09 00:38:57;;;;;;;1999.90;999.90;;;;;;;1.16;100.00;100531.81;1785215;78;21154;-64
2021/01/09 00:41:27;;;;;;;1999.90;999.90;;;;;;;1.11;100.00;100523.01;1769947;79;21108;-65
2021/01/09 00:43:56;;;;;;;1999.90;999.90;;;;;;;1.13;100.00;100528.22;1770584;79;21103;-64
2021/01/09 00:46:24;;;;;;;1999.90;999.90;;;;;;;1.12;100.00;100534.20;1774722;79;21459;-65
2021/01/09 00:48:52;;;;;;;1999.90;999.90;;;;;;;1.11;100.00;100527.64;1763625;79;21378;-65
2021/01/09 00:51:19;;;;;;;1999.90;999.90;;;;;;;1.10;100.00;100524.63;1768675;79;21102;-64
2021/01/09 00:53:47;;;;;;;1999.90;999.90;;;;;;;1.10;100.00;100520.00;1783575;77;21126;-65
2021/01/09 00:56:15;;;;;;;1999.90;999.90;;;;;;;1.11;100.00;100506.66;1770708;79;21186;-64
2021/01/09 00:58:43;;;;;;;1999.90;999.90;;;;;;;1.11;100.00;100509.92;1774637;79;21163;-65
2021/01/09 01:01:11;;;;;;;1999.90;999.90;;;;;;;1.09;100.00;100509.34;1763585;79;21542;-65
2021/01/09 01:03:42;;;;;;;1999.90;999.90;;;;;;;1.06;100.00;100501.66;1787556;78;21138;-64
2021/01/09 01:06:10;;;;;;;1999.90;999.90;;;;;;;1.06;100.00;100490.22;1764898;79;21119;-64
2021/01/09 01:08:39;;;;;;;1999.90;999.90;;;;;;;1.04;100.00;100489.64;1768461;79;21123;-65
2021/01/09 01:11:09;;;;;;;1999.90;999.90;;;;;;;1.06;100.00;100493.48;1780332;79;20972;-64
2021/01/09 01:13:37;;;;;;;1999.90;999.90;;;;;;;1.08;100.00;100503.06;1767305;79;21366;-64
2021/01/09 01:16:05;;;;;;;1999.90;999.90;;;;;;;1.10;100.00;100509.62;1769337;79;21127;-64
2021/01/09 01:18:33;;;;;;;1999.90;999.90;;;;;;;1.10;100.00;100520.00;1781393;79;21545;-64
2021/01/09 01:21:02;;;;;;;1999.90;999.90;;;;;;;1.13;100.00;100518.67;1782736;79;21776;-64
2021/01/09 01:23:30;;;;;;;1999.90;999.90;;;;;;;1.15;100.00;100526.89;1776409;79;21516;-64
2021/01/09 01:25:58;;;;;;;1999.90;999.90;;;;;;;1.18;100.00;100528.30;1772493;79;21371;-64
2021/01/09 01:28:26;;;;;;;1999.90;999.90;;;;;;;1.19;100.00;100533.50;1783373;79;21169;-65
2021/01/09 01:30:54;;;;;;;1999.90;999.90;;;;;;;1.19;100.00;100533.50;1767637;79;21158;-66
2021/01/09 01:33:22;;;;;;;1999.90;999.90;;;;;;;1.19;100.00;100521.77;1780566;79;21525;-63
2021/01/09 01:35:50;;;;;;;1999.90;999.90;;;;;;;1.17;100.00;100513.84;1774126;79;21188;-65
2021/01/09 01:38:19;;;;;;;1999.90;999.90;;;;;;;1.19;100.00;100502.69;1793029;79;21437;-65
2021/01/09 01:40:47;;;;;;;1999.90;999.90;;;;;;;1.17;100.00;100505.66;1773471;79;21087;-65
2021/01/09 01:43:15;;;;;;;1999.90;999.90;;;;;;;1.12;100.00;100504.22;1796936;79;21110;-65
2021/01/09 01:45:43;;;;;;;1999.90;999.90;;;;;;;1.11;100.00;100498.48;1773011;79;21079;-65
2021/01/09 01:48:11;;;;;;;1999.90;999.90;;;;;;;1.11;100.00;100499.02;1790607;79;21097;-66
2021/01/09 01:50:39;;;;;;;1999.90;999.90;;;;;;;1.13;100.00;100500.95;1765147;79;21373;-66
2021/01/09 01:53:07;;;;;;;1999.90;999.90;;;;;;;1.18;100.00;100499.67;1789929;79;21114;-66
2021/01/09 01:55:35;;;;;;;1999.90;999.90;;;;;;;1.21;100.00;100493.73;1771812;79;21542;-66
2021/01/09 01:58:03;;;;;;;1999.90;999.90;;;;;;;1.23;100.00;100484.77;1781847;79;21093;-66
2021/01/09 02:00:32;;;;;;;1999.90;999.90;;;;;;;1.22;100.00;100488.03;1741233;81;21527;-66
2021/01/09 02:03:01;;;;;;;1999.90;999.90;;;;;;;1.20;100.00;100487.45;1714229;81;21387;-66
2021/01/09 02:05:35;;;;;;;1999.90;999.90;;;;;;;1.20;100.00;100487.98;1722181;81;21435;-66
2021/01/09 02:08:04;;;;;;;1999.90;999.90;;;;;;;1.16;100.00;100485.47;1742955;81;20991;-66
2021/01/09 02:10:32;;;;;;;1999.90;999.90;;;;;;;1.14;100.00;100483.53;1722821;81;21506;-67
2021/01/09 02:13:04;;;;;;;1999.90;999.90;;;;;;;1.11;100.00;100483.48;1742202;81;21103;-66
2021/01/09 02:15:32;;;;;;;1999.90;999.90;;;;;;;1.10;100.00;100480.47;1726078;81;21364;-65
2021/01/09 02:18:00;;;;;;;1999.90;999.90;;;;;;;1.10;100.00;100477.75;1741242;81;21114;-66
2021/01/09 02:20:29;;;;;;;1999.90;999.90;;;;;;;1.07;100.00;100478.24;1729433;81;21119;-66
2021/01/09 02:22:57;;;;;;;1999.90;999.90;;;;;;;1.06;100.00;100473.04;1739322;81;21099;-66
2021/01/09 02:25:24;;;;;;;1999.90;999.90;;;;;;;1.06;100.00;100474.41;1725540;81;21119;-66
2021/01/09 02:27:52;;;;;;;1999.90;999.90;;;;;;;1.06;100.00;100466.22;1735086;79;21617;-66
2021/01/09 02:30:26;;;;;;;1999.90;999.90;;;;;;;1.06;100.00;100459.41;1726749;81;21633;-66
2021/01/09 02:33:01;;;;;;;1999.90;999.90;;;;;;;1.08;100.00;100461.35;1728160;81;21091;-66
2021/01/09 02:35:31;;;;;;;1999.90;999.90;;;;;;;1.09;100.00;100452.92;1720778;81;21419;-66
2021/01/09 02:37:59;;;;;;;1999.90;999.90;;;;;;;1.09;100.00;100448.02;1711423;81;21158;-66
2021/01/09 02:40:27;;;;;;;1999.90;999.90;;;;;;;1.10;100.00;100435.50;1735310;80;22138;-66
2021/01/09 02:42:55;;;;;;;1999.90;999.90;;;;;;;1.13;100.00;100435.53;1735582;81;21119;-65
2021/01/09 02:45:23;;;;;;;1999.90;999.90;;;;;;;1.12;100.00;100444.25;1732822;81;21151;-66
2021/01/09 02:47:50;;;;;;;1999.90;999.90;;;;;;;1.08;100.00;100429.47;1733804;81;21542;-65
2021/01/09 02:50:19;;;;;;;1999.90;999.90;;;;;;;1.07;100.00;100430.55;1724645;81;21558;-65
2021/01/09 02:52:46;;;;;;;1999.90;999.90;;;;;;;1.07;100.00;100440.63;1751789;81;21371;-65
2021/01/09 02:55:14;;;;;;;1999.90;999.90;;;;;;;1.05;100.00;100434.59;1741922;81;21111;-65
2021/01/09 02:57:42;;;;;;;1999.90;999.90;;;;;;;1.05;100.00;100440.05;1720708;81;21004;-65
2021/01/09 03:00:11;;;;;;;1999.90;999.90;;;;;;;1.07;100.00;100439.27;1727933;81;21106;-65
2021/01/09 03:02:39;;;;;;;1999.90;999.90;;;;;;;1.08;100.00;100423.20;1741840;81;21170;-64
2021/01/09 03:05:09;;;;;;;1999.90;999.90;;;;;;;1.05;100.00;100416.34;1728175;81;21570;-64
2021/01/09 03:07:37;;;;;;;1999.90;999.90;;;;;;;1.00;100.00;100421.72;1726045;81;21178;-64
2021/01/09 03:10:08;;;;;;;1999.90;999.90;;;;;;;0.98;100.00;100427.13;1713622;81;21213;-65
2021/01/09 03:12:35;;;;;;;1999.90;999.90;;;;;;;1.01;100.00;100436.16;1723823;81;21550;-66
2021/01/09 03:15:05;;;;;;;1999.90;999.90;;;;;;;1.02;100.00;100431.00;1720713;81;21156;-65
2021/01/09 03:17:33;;;;;;;1999.90;999.90;;;;;;;1.00;100.00;100424.98;1728082;81;21202;-65
2021/01/09 03:20:01;;;;;;;1999.90;999.90;;;;;;;1.00;100.00;100427.70;1724135;81;21173;-65
2021/01/09 03:22:29;;;;;;;1999.90;999.90;;;;;;;1.02;100.00;100431.00;1721637;81;21557;-65
2021/01/09 03:24:57;;;;;;;1999.90;999.90;;;;;;;1.03;100.00;100427.20;1728223;81;21278;-64
2021/01/09 03:27:25;;;;;;;1999.90;999.90;;;;;;;1.04;100.00;100431.58;1728674;81;21135;-66
2021/01/09 03:29:52;;;;;;;1999.90;999.90;;;;;;;1.05;100.00;100425.05;1723351;81;21384;-65
2021/01/09 03:32:21;;;;;;;1999.90;999.90;;;;;;;1.03;100.00;100424.48;1724291;81;21152;-66
2021/01/09 03:34:49;;;;;;;1999.90;999.90;;;;;;;1.01;100.00;100423.36;1725117;81;21174;-65
2021/01/09 03:37:17;;;;;;;1999.90;999.90;;;;;;;1.00;100.00;100430.42;1735802;81;21119;-65
2021/01/09 03:39:44;;;;;;;1999.90;999.90;;;;;;;1.00;100.00;100428.53;1731382;81;21091;-65
2021/01/09 03:42:12;;;;;;;1999.90;999.90;;;;;;;1.00;100.00;100415.44;1725085;81;21581;-66
2021/01/09 03:44:40;;;;;;;1999.90;999.90;;;;;;;0.99;100.00;100409.70;1730915;81;21594;-66
2021/01/09 03:47:08;;;;;;;1999.90;999.90;;;;;;;0.99;100.00;100403.71;1728436;81;21234;-65
2021/01/09 03:49:36;;;;;;;1999.90;999.90;;;;;;;0.96;100.00;100395.50;1714508;81;21146;-65
2021/01/09 03:52:04;;;;;;;1999.90;999.90;;;;;;;0.98;100.00;100401.23;1728844;80;21130;-65
2021/01/09 03:54:32;;;;;;;1999.90;999.90;;;;;;;0.97;100.00;100400.41;1715389;81;21455;-65
2021/01/09 03:57:00;;;;;;;1999.90;999.90;;;;;;;0.94;100.00;100394.92;1720556;81;21138;-65
2021/01/09 03:59:28;;;;;;;1999.90;999.90;;;;;;;0.89;100.00;100401.66;1719231;80;21221;-66
2021/01/09 04:01:56;;;;;;;1999.90;999.90;;;;;;;0.87;100.00;100410.61;1730176;81;21566;-65
2021/01/09 04:04:24;;;;;;;1999.90;999.90;;;;;;;0.84;100.00;100417.09;1732100;81;21151;-65
2021/01/09 04:06:52;;;;;;;1999.90;999.90;;;;;;;0.83;100.00;100420.36;1736273;81;21666;-65
2021/01/09 04:09:20;;;;;;;1999.90;999.90;;;;;;;0.81;100.00;100418.95;1728531;81;21123;-65
2021/01/09 04:11:48;;;;;;;1999.90;999.90;;;;;;;0.79;100.00;100412.92;1728020;81;20985;-66
2021/01/09 04:14:16;;;;;;;1999.90;999.90;;;;;;;0.73;100.00;100407.11;1733134;81;21115;-65
2021/01/09 04:16:44;;;;;;;1999.90;999.90;;;;;;;0.70;100.00;100415.77;1712622;81;21107;-65
2021/01/09 04:19:12;;;;;;;1999.90;999.90;;;;;;;0.70;100.00;100416.59;1725131;81;21390;-66
2021/01/09 04:21:51;;;;;;;1999.90;999.90;;;;;;;0.67;100.00;100421.72;1718075;81;21122;-66
2021/01/09 04:24:20;;;;;;;1999.90;999.90;;;;;;;0.61;100.00;100420.80;1734562;81;21554;-66
2021/01/09 04:26:59;;;;;;;1999.90;999.90;;;;;;;0.67;100.00;100416.27;1841996;76;23378;-64
2021/01/09 04:29:27;;;;;;;1999.90;999.90;;;;;;;0.57;100.00;100413.66;1810398;78;20984;-65
2021/01/09 04:31:55;;;;;;;1999.90;999.90;;;;;;;0.54;100.00;100405.98;1776570;80;22281;-65
2021/01/09 04:34:24;;;;;;;1999.90;999.90;;;;;;;0.54;100.00;100404.62;1744921;81;21142;-64
2021/01/09 04:36:53;;;;;;;1999.90;999.90;;;;;;;0.52;100.00;100399.95;1764827;80;21643;-65
2021/01/09 04:39:21;;;;;;;1999.90;999.90;;;;;;;0.51;100.00;100393.40;1768983;80;20969;-66
2021/01/09 04:41:49;;;;;;;1999.90;999.90;;;;;;;0.52;100.00;100393.69;1770206;80;21589;-64
2021/01/09 04:44:16;;;;;;;1999.90;999.90;;;;;;;0.52;100.00;100390.96;1777170;80;21430;-64
2021/01/09 04:46:51;;;;;;;1999.90;999.90;;;;;;;0.52;100.00;100400.49;1778247;80;21088;-65
2021/01/09 04:49:27;;;;;;;;;;;;;;;0.51;100.00;100402.93;1749843;80;20942;-65
2021/01/09 04:51:55;;;;;;;1999.90;999.90;;;;;;;0.49;100.00;100403.17;1772043;80;20156;-64
2021/01/09 04:54:25;;;;;;;1999.90;999.90;;;;;;;0.46;100.00;100405.02;1764465;80;20962;-64
2021/01/09 04:56:54;;;;;;;1999.90;999.90;;;;;;;0.46;100.00;100398.22;1777826;80;21378;-65
2021/01/09 04:59:23;;;;;;;1999.90;999.90;;;;;;;0.49;100.00;100403.17;1774438;80;21537;-64
2021/01/09 05:01:52;;;;;;;1999.90;999.90;;;;;;;0.50;100.00;100391.75;1777375;80;21153;-64
2021/01/09 05:04:21;;;;;;;1999.90;999.90;;;;;;;0.48;100.00;100383.00;1775679;79;21095;-65
2021/01/09 05:06:49;;;;;;;1999.90;999.90;;;;;;;0.45;100.00;100387.04;1777200;80;20965;-65
2021/01/09 05:09:17;;;;;;;1999.90;999.90;;;;;;;0.43;100.00;100375.56;1772065;80;21343;-64
2021/01/09 05:11:45;;;;;;;1999.90;999.90;;;;;;;0.41;100.00;100366.82;1778198;80;21092;-65
2021/01/09 05:14:13;;;;;;;1999.90;999.90;;;;;;;0.41;100.00;100368.18;1775145;80;21021;-65
2021/01/09 05:16:41;;;;;;;1999.90;999.90;;;;;;;0.42;100.00;100380.72;1777254;80;21523;-65
2021/01/09 05:19:09;;;;;;;1999.90;999.90;;;;;;;0.43;100.00;100386.46;1740205;82;21175;-64
2021/01/09 05:21:38;;;;;;;1999.90;999.90;;;;;;;0.44;100.00;100392.19;1768480;80;21542;-65
2021/01/09 05:24:08;;;;;;;1999.90;999.90;;;;;;;0.45;100.00;100392.48;1739665;81;21575;-65
2021/01/09 05:26:37;;;;;;;1999.90;999.90;;;;;;;0.46;100.00;100391.41;1759630;80;21151;-68
2021/01/09 05:29:06;;;;;;;1999.90;999.90;;;;;;;0.49;100.00;100397.73;1738142;81;21137;-68
2021/01/09 05:31:35;;;;;;;1999.90;999.90;;;;;;;0.48;100.00;100392.53;1740808;81;21078;-68
2021/01/09 05:34:06;;;;;;;1999.90;999.90;;;;;;;0.50;100.00;100404.83;1746761;81;21549;-67
2021/01/09 05:36:41;;;;;;;1999.90;999.90;;;;;;;0.53;100.00;100404.87;1857231;76;22224;-63
2021/01/09 05:39:10;;;;;;;1999.90;999.90;;;;;;;0.46;100.00;100402.30;1829206;77;20961;-63
2021/01/09 05:41:40;;;;;;;1999.90;999.90;;;;;;;0.46;100.00;100390.05;1783613;80;22270;-64
2021/01/09 05:44:09;;;;;;;1999.90;999.90;;;;;;;0.44;100.00;100392.19;1768943;80;21137;-63
2021/01/09 05:46:40;;;;;;;1999.90;999.90;;;;;;;0.45;100.00;100384.31;1775932;80;21268;-65
2021/01/09 05:49:09;;;;;;;1999.90;999.90;;;;;;;0.41;100.00;100376.34;1780037;79;20976;-65
2021/01/09 05:51:38;;;;;;;1999.90;999.90;;;;;;;0.41;100.00;100387.78;1760227;80;21109;-65
2021/01/09 05:54:08;;;;;;;1999.90;999.90;;;;;;;0.40;100.00;100392.39;1767327;80;21394;-64
2021/01/09 05:56:40;;;;;;;1999.90;999.90;;;;;;;0.40;100.00;100396.48;1764055;80;20985;-65
2021/01/09 05:59:09;;;;;;;1999.90;999.90;;;;;;;0.40;100.00;100401.09;1775795;79;21535;-66
2021/01/09 06:01:38;;;;;;;1999.90;999.90;;;;;;;0.40;100.00;100400.56;1756630;79;21558;-67
2021/01/09 06:04:10;;;;;;;1999.90;999.90;;;;;;;0.41;100.00;100402.75;1771998;79;21109;-66
2021/01/09 06:07:10;;;;;;;1999.90;999.90;;;;;;;0.41;100.00;100395.95;1771542;79;21284;-68
2021/01/09 06:10:00;;;;;;;1999.90;999.90;;;;;;;0.43;100.00;100395.16;1743659;79;21001;-67
2021/01/09 06:12:28;;;;;;;1999.90;999.90;;;;;;;0.42;100.00;100378.54;1767746;80;21482;-67
2021/01/09 06:14:56;;;;;;;1999.90;999.90;;;;;;;0.41;100.00;100366.82;1740278;80;21095;-67
2021/01/09 06:17:25;;;;;;;1999.90;999.90;;;;;;;0.39;100.00;100369.50;1726875;80;21117;-67
2021/01/09 06:19:52;;;;;;;1999.90;999.90;;;;;;;0.39;100.00;100399.45;1759278;80;21366;-67
2021/01/09 06:22:21;;;;;;;1999.90;999.90;;;;;;;0.40;100.00;100407.38;1745756;80;21123;-66
2021/01/09 06:28:57;;;;;;;1999.90;999.90;;;;;;;0.44;100.00;100402.26;1763484;79;22888;-65
2021/01/09 06:31:28;;;;;;;1999.90;999.90;;;;;;;0.38;100.00;100394.54;1716490;82;20953;-65
2021/01/09 06:34:04;;;;;;;1999.90;999.90;;;;;;;0.41;100.00;100395.95;1872462;76;21722;-65
2021/01/09 06:36:32;;;;;;;1999.90;999.90;;;;;;;0.37;100.00;100399.69;1802717;77;20924;-64
2021/01/09 06:39:01;;;;;;;1999.90;999.90;;;;;;;0.36;100.00;100392.59;1816246;77;21193;-63
2021/01/09 06:41:30;;;;;;;1999.90;999.90;;;;;;;0.33;100.00;100384.09;1806763;77;21534;-64
2021/01/09 06:44:01;;;;;;;1999.90;999.90;;;;;;;0.29;100.00;100392.75;1781762;78;21545;-64
2021/01/09 06:46:34;;;;;;;1999.90;999.90;;;;;;;0.32;100.00;100402.33;1778878;78;20959;-64
2021/01/09 06:49:03;;;;;;;1999.90;999.90;;;;;;;0.33;100.00;100402.61;1822401;77;20952;-65
2021/01/09 06:51:44;;;;;;;1999.90;999.90;;;;;;;0.35;100.00;100408.64;1823326;77;21192;-65
2021/01/09 06:54:32;;;;;;;1999.90;999.90;;;;;;;0.41;100.00;100394.05;1903673;73;22625;-66
2021/01/09 06:57:11;;;;;;;1999.90;999.90;;;;;;;0.37;100.00;100392.06;1859641;76;20935;-65
2021/01/09 06:59:40;;;;;;;1999.90;999.90;;;;;;;0.38;100.00;100389.63;1878835;75;22246;-63
2021/01/09 07:02:25;;;;;;;1999.90;999.90;;;;;;;0.37;100.00;100395.61;1869657;76;20940;-63
2021/01/09 07:05:04;;;;;;;1999.90;999.90;;;;;;;0.37;100.00;100405.67;1872705;74;20964;-66
2021/01/09 07:07:52;;;;;;;1999.90;999.90;;;;;;;0.36;100.00;100417.09;1874734;76;20955;-65
2021/01/09 07:10:29;;;;;;;1999.90;999.90;;;;;;;0.36;100.00;100418.99;1877731;76;20924;-68
2021/01/09 07:12:59;;;;;;;1999.90;999.90;;;;;;;0.37;100.00;100418.75;1863428;74;21302;-68
2021/01/09 07:15:28;;;;;;;1999.90;999.90;;;;;;;0.37;100.00;100417.92;1874694;76;20959;-65
2021/01/09 07:17:59;;;;;;;1999.90;999.90;;;;;;;0.36;100.00;100412.19;1869438;74;20920;-65
2021/01/09 07:20:41;;;;;;;1999.90;999.90;;;;;;;0.37;100.00;100422.83;1875766;74;21054;-67
2021/01/09 07:23:10;;;;;;;1999.90;999.90;;;;;;;0.34;100.00;100436.94;1872389;74;20935;-66
2021/01/09 07:25:39;;;;;;;1999.90;999.90;;;;;;;0.31;100.00;100440.97;1869784;74;21182;-71
2021/01/09 07:28:21;;;;;;;1999.90;999.90;;;;;;;0.34;100.00;100439.66;1865589;76;20963;-63
2021/01/09 07:31:10;;;;;;;1999.90;999.90;;;;;;;0.35;100.00;100438.59;1847330;76;21093;-64
2021/01/09 07:33:38;;;;;;;1999.90;999.90;;;;;;;0.36;100.00;100443.50;1875241;76;20974;-65
2021/01/09 07:36:07;;;;;;;1999.90;999.90;;;;;;;0.37;100.00;100445.14;1849522;74;20936;-68
2021/01/09 07:38:35;;;;;;;1999.90;999.90;;;;;;;0.36;100.00;100447.05;1870219;76;21805;-65
2021/01/09 07:41:05;;;;;;;1999.90;999.90;;;;;;;0.34;100.00;100438.30;1819733;76;21129;-65
2021/01/09 07:43:43;;;;;;;1999.90;999.90;;;;;;;0.36;100.00;100446.22;1879152;75;21121;-69
2021/01/09 07:46:27;;;;;;;1999.90;999.90;;;;;;;0.37;100.00;100449.23;1866731;76;21109;-70
2021/01/09 07:49:01;;;;;;;1999.90;999.90;;;;;;;0.38;100.00;100443.55;1882007;76;20971;-70
2021/01/09 07:51:52;;;;;;;1999.90;999.90;;;;;;;0.38;100.00;100435.38;1882192;75;22119;-69
2021/01/09 07:54:43;;;;;;;1999.90;999.90;;;;;;;0.41;100.00;100444.95;1886060;75;20939;-70
2021/01/09 07:57:22;;;;;;;1999.90;999.90;;;;;;;0.42;100.00;100438.44;1894182;75;21472;-69
2021/01/09 08:00:03;;;;;;;1999.90;999.90;;;;;;;0.41;100.00;100445.77;1898049;74;21057;-69
2021/01/09 08:02:35;;;;;;;1999.90;999.90;;;;;;;0.41;100.00;100440.33;1896202;75;21504;-68
2021/01/09 08:05:15;;;;;;;1999.90;999.90;;;;;;;0.42;100.00;100413.93;1898755;74;21348;-68
2021/01/09 08:07:47;;;;;;;1999.90;999.90;;;;;;;0.42;100.00;100412.56;1889605;74;21396;-70
2021/01/09 08:10:18;;;;;;;1999.90;999.90;;;;;;;0.43;100.00;100420.49;1868904;75;20959;-67
2021/01/09 08:12:46;;;;;;;1999.90;999.90;;;;;;;0.46;100.00;100427.34;1898981;75;21267;-68
2021/01/09 08:15:15;;;;;;;1999.90;999.90;;;;;;;0.47;100.00;100433.08;1893234;75;20947;-70
2021/01/09 08:17:43;;;;;;;1999.90;999.90;;;;;;;0.49;100.00;100409.98;1899335;74;22095;-68
2021/01/09 08:20:12;;;;;;;1999.90;999.90;;;;;;;0.51;100.00;100396.12;1894233;75;20978;-68
2021/01/09 08:22:56;;;;;;;1999.90;999.90;;;;;;;0.55;100.00;100407.63;1889687;75;21050;-67
2021/01/09 08:25:29;;;;;;;1999.90;999.90;;;;;;;0.58;100.00;100406.31;1892255;75;20931;-67
2021/01/09 08:27:59;;;;;;;1999.90;999.90;;;;;;;0.59;100.00;100410.69;1887589;73;20876;-68
2021/01/09 08:30:29;;;;;;;1999.90;999.90;;;;;;;0.59;100.00;100395.71;1895102;75;21373;-68
2021/01/09 08:33:09;;;;;;;1999.90;999.90;;;;;;;0.54;100.00;100380.65;1889202;73;21435;-66
2021/01/09 08:35:51;;;;;;;1999.90;999.90;;;;;;;0.53;100.00;100383.91;1889569;75;21112;-65
2021/01/09 08:38:27;;;;;;;1999.90;999.90;;;;;;;0.53;100.00;100364.02;1885839;75;20966;-66
2021/01/09 08:40:58;;;;;;;1999.90;999.90;;;;;;;0.53;100.00;100353.13;1870919;74;21223;-64
2021/01/09 08:43:27;;;;;;;1999.90;999.90;;;;;;;0.50;100.00;100335.39;1891051;75;20958;-66
2021/01/09 08:45:55;;;;;;;1999.90;999.90;;;;;;;0.54;100.00;100332.99;1902854;75;21102;-68
2021/01/09 08:48:29;;;;;;;1999.90;999.90;;;;;;;0.58;100.00;100339.59;1886774;75;21587;-67
2021/01/09 08:51:11;;;;;;;1999.90;999.90;;;;;;;0.61;100.00;100332.30;1885591;73;21141;-62
2021/01/09 08:53:50;;;;;;;1999.90;999.90;;;;;;;0.61;100.00;100341.82;1874336;73;20916;-69
2021/01/09 08:56:21;;;;;;;1999.90;999.90;;;;;;;0.61;100.00;100359.52;1864929;76;21351;-69
2021/01/09 08:58:49;;;;;;;1999.90;999.90;;;;;;;0.61;100.00;100369.05;1838807;76;21506;-71
2021/01/09 09:01:20;;;;;;;1999.90;999.90;;;;;;;0.62;100.00;100357.91;1866357;76;20951;-70
2021/01/09 09:03:49;;;;;;;1999.90;999.90;;;;;;;0.61;100.00;100331.75;1863403;76;21062;-69
2021/01/09 09:06:23;;;;;;;1999.90;999.90;;;;;;;0.55;100.00;100316.41;1874193;76;21552;-69
2021/01/09 09:08:50;;;;;;;1999.90;999.90;;;;;;;0.55;100.00;100335.47;1849661;76;21320;-71
2021/01/09 09:11:18;;;;;;;1999.90;999.90;;;;;;;0.62;100.00;100333.94;1815206;76;20955;-69
2021/01/09 09:14:08;;;;;;;1999.90;999.90;;;;;;;0.66;100.00;100335.63;1873413;76;21078;-71
2021/01/09 09:16:38;;;;;;;1999.90;999.90;;;;;;;0.68;100.00;100326.67;1864972;76;21154;-72
2021/01/09 09:19:16;;;;;;;1999.90;999.90;;;;;;;0.71;100.00;100337.89;1869154;76;21161;-66
2021/01/09 09:21:46;;;;;;;1999.90;999.90;;;;;;;0.72;100.00;100340.91;1872603;75;22152;-68
2021/01/09 09:24:16;;;;;;;1999.90;999.90;;;;;;;0.74;100.00;100332.48;1868667;74;21124;-66
2021/01/09 09:26:44;;;;;;;1999.90;999.90;;;;;;;0.76;100.00;100335.78;1876436;76;21102;-68
2021/01/09 09:29:16;;;;;;;1999.90;999.90;;;;;;;0.76;100.00;100364.39;1865321;76;20991;-67
2021/01/09 09:31:43;;;;;;;1999.90;999.90;;;;;;;0.73;100.00;100365.71;1866307;76;21936;-65
2021/01/09 09:34:12;;;;;;;1999.90;999.90;;;;;;;0.72;100.00;100326.46;1873188;76;21417;-66
2021/01/09 09:36:52;;;;;;;1999.90;999.90;;;;;;;0.73;100.00;100303.06;1867071;75;21556;-65
2021/01/09 09:39:21;;;;;;;1999.90;999.90;;;;;;;0.74;100.00;100274.75;1862136;76;20951;-69
2021/01/09 09:41:54;;;;;;;1999.90;999.90;;;;;;;0.76;100.00;100288.94;1866818;76;20943;-68
2021/01/09 09:44:36;;;;;;;1999.90;999.90;;;;;;;0.79;100.00;100330.66;1870498;76;21062;-66
2021/01/09 09:47:06;;;;;;;1999.90;999.90;;;;;;;0.79;100.00;100327.11;1871615;76;21333;-68
2021/01/09 09:49:38;;;;;;;1999.90;999.90;;;;;;;0.77;100.00;100298.77;1867796;76;21509;-68
2021/01/09 09:52:21;;;;;;;1999.90;999.90;;;;;;;0.74;100.00;100289.73;1865158;76;20940;-73
2021/01/09 09:55:03;;;;;;;1999.90;999.90;;;;;;;0.76;100.00;100295.75;1874494;76;20956;-68
2021/01/09 09:57:30;;;;;;;1999.90;999.90;;;;;;;0.77;100.00;100317.83;1866800;75;21163;-69
2021/01/09 10:00:07;;;;;;;1999.90;999.90;;;;;;;0.77;100.00;100316.47;1865694;76;21365;-73
2021/01/09 10:02:54;;;;;;;1999.90;999.90;;;;;;;0.77;100.00;100321.91;1867775;76;21501;-68
2021/01/09 10:05:23;;;;;;;1999.90;999.90;;;;;;;0.77;100.00;100301.48;1870734;76;20968;-66
2021/01/09 10:08:14;;;;;;;1999.90;999.90;;;;;;;0.79;100.00;100300.70;1872702;74;21008;-71
2021/01/09 10:10:42;;;;;;;1999.90;999.90;;;;;;;0.80;100.00;100313.24;1869149;76;21082;-69
2021/01/09 10:13:10;;;;;;;1999.90;999.90;;;;;;;0.81;100.00;100303.99;1868474;76;22015;-67
2021/01/09 10:15:38;;;;;;;1999.90;999.90;;;;;;;0.82;100.00;100311.09;1864333;74;21459;-69
2021/01/09 10:18:06;;;;;;;1999.90;999.90;;;;;;;0.85;100.00;100316.04;1859083;76;20951;-67
2021/01/09 10:20:34;;;;;;;1999.90;999.90;;;;;;;0.88;100.00;100301.92;1861285;76;21081;-65
2021/01/09 10:23:02;;;;;;;1999.90;999.90;;;;;;;0.91;100.00;100291.87;1870608;76;21074;-64
2021/01/09 10:25:30;;;;;;;1999.90;999.90;;;;;;;0.92;100.00;100309.05;1869308;76;21372;-67
2021/01/09 10:27:58;;;;;;;1999.90;999.90;;;;;;;0.89;100.00;100311.73;1868796;74;20960;-66
2021/01/09 10:30:27;;;;;;;1999.90;999.90;;;;;;;0.89;100.00;100304.93;1865891;74;21498;-64
2021/01/09 10:32:56;;;;;;;1999.90;999.90;;;;;;;0.92;100.00;100305.79;1866645;76;21174;-69
2021/01/09 10:35:24;;;;;;;1999.90;999.90;;;;;;;0.95;100.00;100314.83;1819335;76;21631;-66
2021/01/09 10:37:52;;;;;;;1999.90;999.90;;;;;;;0.96;100.00;100313.75;1872602;76;21355;-65
2021/01/09 10:40:20;;;;;;;1999.90;999.90;;;;;;;1.00;100.00;100314.61;1874297;76;21137;-66
2021/01/09 10:42:48;;;;;;;1999.90;999.90;;;;;;;1.00;100.00;100311.88;1867397;76;21552;-67
2021/01/09 10:45:16;;;;;;;1999.90;999.90;;;;;;;1.02;100.00;100316.00;1864442;76;21078;-66
2021/01/09 10:47:44;;;;;;;1999.90;999.90;;;;;;;1.02;100.00;100300.19;1863843;75;21104;-64
2021/01/09 10:50:13;;;;;;;1999.90;999.90;;;;;;;1.02;100.00;100314.64;1864902;76;21368;-66
2021/01/09 10:52:41;;;;;;;1999.90;999.90;;;;;;;1.00;100.00;100304.53;1869015;75;20959;-64
2021/01/09 10:55:10;;;;;;;1999.90;999.90;;;;;;;0.98;100.00;100312.67;1885547;75;21073;-66
2021/01/09 10:57:38;;;;;;;1999.90;999.90;;;;;;;0.98;100.00;100316.76;1880446;75;21806;-63
2021/01/09 11:00:09;;;;;;;1999.90;999.90;;;;;;;0.99;100.00;100314.32;1889613;75;21085;-63
2021/01/09 11:02:37;;;;;;;1999.90;999.90;;;;;;;1.01;100.00;100307.55;1888707;75;22064;-66
2021/01/09 11:05:06;;;;;;;1999.90;999.90;;;;;;;1.02;100.00;100303.74;1892377;75;21378;-65
2021/01/09 11:07:34;;;;;;;1999.90;999.90;;;;;;;1.04;100.00;100298.04;1894740;75;21099;-62